Time;durP1;ratioP1;P1;durP2;ratioP2;P2;SDS_P1;SDS_P2;PMS_P1;PMS_P2;Temp;Humidity;BMP_temperature;BMP_pressure;BME280_temperature;BME280_humidity;BME280_pressure;Samples;Min_cycle;Max_cycle;Signal;HPM_P1;HPM_P2
2022/10/16 00:01:51;;;;;;;0.22;0.22;;;;;;;15.01;76.14;100560.50;5170484;28;20034;-83
2022/10/16 00:04:24;;;;;;;0.80;0.50;;;;;;;14.99;76.26;100568.50;5193638;28;20037;-83
2022/10/16 00:06:55;;;;;;;0.35;0.35;;;;;;;14.99;75.93;100557.94;5162073;28;20390;-83
2022/10/16 00:09:28;;;;;;;0.20;0.20;;;;;;;14.98;75.98;100558.88;5133117;28;20038;-83
2022/10/16 00:12:06;;;;;;;0.20;0.20;;;;;;;14.92;76.03;100561.78;5133768;28;20030;-81
2022/10/16 00:14:41;;;;;;;0.30;0.30;;;;;;;14.94;76.21;100573.13;5165630;28;20023;-83
2022/10/16 00:17:12;;;;;;;0.40;0.40;;;;;;;14.88;76.51;100574.28;5149138;28;20030;-82
2022/10/16 00:19:42;;;;;;;0.50;0.50;;;;;;;14.89;76.52;100569.88;5196302;28;20045;-83
2022/10/16 00:22:13;;;;;;;0.25;0.25;;;;;;;14.89;76.03;100564.59;5141435;28;20499;-83
2022/10/16 00:24:50;;;;;;;0.30;0.30;;;;;;;14.85;76.35;100568.28;5165955;28;20061;-83
2022/10/16 00:27:24;;;;;;;0.60;0.60;;;;;;;14.90;76.33;100561.03;5180480;28;20051;-84
2022/10/16 00:29:57;;;;;;;;;;;;;;;14.93;75.87;100558.22;5156483;28;20026;-83
2022/10/16 00:32:27;;;;;;;0.47;0.47;;;;;;;14.92;76.09;100548.56;5148821;28;19905;-82
2022/10/16 00:34:58;;;;;;;0.20;0.20;;;;;;;14.87;76.04;100550.59;5146488;28;20022;-83
2022/10/16 00:37:33;;;;;;;0.30;0.30;;;;;;;14.84;76.26;100550.72;5195079;28;20041;-83
2022/10/16 00:40:32;;;;;;;0.20;0.20;;;;;;;14.80;76.09;100550.00;5147473;28;20042;-82
2022/10/16 00:43:35;;;;;;;0.30;0.30;;;;;;;14.81;76.20;100558.81;5149273;28;20046;-84
2022/10/16 00:46:39;;;;;;;0.30;0.30;;;;;;;14.85;76.03;100550.69;5163386;28;20545;-83
2022/10/16 00:49:20;;;;;;;1.40;1.30;;;;;;;14.81;75.94;100533.25;5160453;28;20042;-83
2022/10/16 00:51:53;;;;;;;0.45;0.38;;;;;;;14.89;76.04;100546.94;5163664;28;20073;-84
2022/10/16 00:54:30;;;;;;;0.37;0.37;;;;;;;14.79;76.07;100549.19;5166803;28;20033;-84
2022/10/16 00:57:07;;;;;;;0.40;0.40;;;;;;;14.88;76.01;100550.50;5168623;28;20049;-83
2022/10/16 00:59:41;;;;;;;0.20;0.20;;;;;;;14.82;75.79;100539.41;5171335;28;20038;-83
2022/10/16 01:02:14;;;;;;;0.63;0.63;;;;;;;14.83;76.11;100547.25;5164720;28;20046;-83
2022/10/16 01:04:49;;;;;;;0.20;0.20;;;;;;;14.79;75.93;100541.25;5170319;28;20094;-83
2022/10/16 01:07:56;;;;;;;0.20;0.20;;;;;;;14.77;75.98;100558.94;5166519;28;20073;-82
2022/10/16 01:10:36;;;;;;;1.05;0.85;;;;;;;14.70;76.51;100568.09;5200418;28;20410;-83
2022/10/16 01:13:35;;;;;;;0.60;0.60;;;;;;;14.73;76.02;100552.13;5165311;28;20538;-83
2022/10/16 01:16:18;;;;;;;0.20;0.20;;;;;;;14.82;75.91;100565.81;5166113;28;20078;-83
2022/10/16 01:19:01;;;;;;;0.20;0.20;;;;;;;14.79;75.95;100582.66;5184439;28;20057;-84
2022/10/16 01:21:42;;;;;;;0.73;0.73;;;;;;;14.81;75.77;100570.22;5177927;28;20042;-82
2022/10/16 01:24:43;;;;;;;0.80;0.80;;;;;;;14.76;76.01;100565.16;5110815;28;20046;-83
2022/10/16 01:27:40;;;;;;;1.65;0.40;;;;;;;14.70;76.26;100552.25;5195899;28;20065;-83
2022/10/16 01:30:30;;;;;;;0.22;0.22;;;;;;;14.73;76.59;100562.69;5181015;28;21369;-82
2022/10/16 01:33:11;;;;;;;2.08;1.55;;;;;;;14.70;76.16;100573.38;5199888;28;20119;-81
2022/10/16 01:35:47;;;;;;;0.30;0.30;;;;;;;14.67;75.95;100568.22;5137742;28;20502;-82
2022/10/16 01:38:38;;;;;;;0.30;0.30;;;;;;;14.71;76.40;100567.16;5153218;28;20128;-86
2022/10/16 01:41:15;;;;;;;0.20;0.20;;;;;;;14.66;76.25;100565.63;5175620;28;20052;-83
2022/10/16 01:44:23;;;;;;;0.30;0.30;;;;;;;14.68;76.27;100566.47;5173398;28;20043;-83
2022/10/16 01:46:55;;;;;;;0.20;0.20;;;;;;;14.71;76.17;100580.38;5132876;28;20039;-85
2022/10/16 01:49:34;;;;;;;0.20;0.20;;;;;;;14.72;75.86;100582.09;5199911;28;20079;-82
2022/10/16 01:52:17;;;;;;;0.30;0.30;;;;;;;14.67;76.16;100586.72;5150747;28;20113;-81
2022/10/16 01:54:59;;;;;;;0.40;0.40;;;;;;;14.72;76.17;100587.38;5153690;28;20738;-81
2022/10/16 01:57:32;;;;;;;0.43;0.43;;;;;;;14.77;75.77;100569.50;5143771;28;20019;-81
2022/10/16 02:00:13;;;;;;;6.70;0.87;;;;;;;14.67;76.12;100578.78;5195949;28;20034;-81
2022/10/16 02:02:48;;;;;;;0.68;0.68;;;;;;;14.68;76.19;100583.13;5160713;28;20574;-82
2022/10/16 02:05:29;;;;;;;0.20;0.20;;;;;;;14.66;76.00;100578.84;5162040;28;20046;-82
2022/10/16 02:07:59;;;;;;;0.43;0.43;;;;;;;14.71;75.92;100585.66;5162895;28;20054;-84
2022/10/16 02:10:36;;;;;;;0.20;0.20;;;;;;;14.71;75.94;100585.66;5188497;28;20068;-83
2022/10/16 02:13:17;;;;;;;0.20;0.20;;;;;;;14.70;76.00;100599.78;5177927;28;20053;-84
2022/10/16 02:15:50;;;;;;;0.20;0.20;;;;;;;14.68;76.06;100598.97;5178003;28;20038;-82
2022/10/16 02:18:21;;;;;;;0.30;0.30;;;;;;;14.60;76.13;100598.44;5164484;28;20049;-84
2022/10/16 02:20:54;;;;;;;0.30;0.30;;;;;;;14.58;76.42;100593.25;5119737;28;20046;-82
2022/10/16 02:23:37;;;;;;;0.35;0.35;;;;;;;14.60;76.19;100596.69;5155049;28;20090;-85
2022/10/16 02:26:14;;;;;;;0.40;0.40;;;;;;;14.58;76.16;100589.78;5196427;28;20039;-80
2022/10/16 02:29:12;;;;;;;0.25;0.25;;;;;;;14.68;75.85;100598.16;5182935;28;20035;-80
2022/10/16 02:31:48;;;;;;;0.38;0.38;;;;;;;14.57;76.16;100599.44;5167995;28;20221;-82
2022/10/16 02:34:22;;;;;;;0.50;0.50;;;;;;;14.62;75.99;100596.59;5186981;28;20057;-82
2022/10/16 02:36:53;;;;;;;0.35;0.35;;;;;;;14.57;75.88;100593.34;5135638;28;20125;-83
2022/10/16 02:39:28;;;;;;;0.20;0.20;;;;;;;14.52;75.90;100595.31;5148196;28;20038;-80
2022/10/16 02:41:59;;;;;;;0.60;0.60;;;;;;;14.57;76.01;100588.06;5187258;28;20049;-81
2022/10/16 02:44:29;;;;;;;0.40;0.40;;;;;;;14.57;75.95;100585.41;5155511;28;20502;-80
2022/10/16 02:47:02;;;;;;;0.30;0.30;;;;;;;14.55;75.82;100584.63;5150833;28;20059;-80
2022/10/16 02:49:32;;;;;;;0.30;0.30;;;;;;;14.48;76.25;100590.19;5177869;28;20048;-80
2022/10/16 02:52:03;;;;;;;0.40;0.40;;;;;;;14.45;76.09;100585.03;5202017;28;20495;-81
2022/10/16 02:54:34;;;;;;;0.20;0.20;;;;;;;14.52;75.75;100590.03;5130903;28;20462;-82
2022/10/16 02:57:05;;;;;;;0.30;0.30;;;;;;;14.53;75.68;100591.75;5164626;28;20117;-81
2022/10/16 02:59:35;;;;;;;0.22;0.22;;;;;;;14.52;75.53;100597.94;5159290;28;20074;-85
2022/10/16 03:02:06;;;;;;;0.50;0.50;;;;;;;14.51;75.77;100585.66;5159992;28;20133;-80
2022/10/16 03:04:39;;;;;;;0.30;0.30;;;;;;;14.47;75.77;100587.59;5184620;28;20328;-83
2022/10/16 03:07:16;;;;;;;0.30;0.30;;;;;;;14.48;75.70;100592.81;5149019;28;20049;-83
2022/10/16 03:09:55;;;;;;;0.20;0.20;;;;;;;14.56;75.29;100586.34;5165476;28;20034;-81
2022/10/16 03:12:27;;;;;;;0.35;0.35;;;;;;;14.61;75.10;100573.75;5111851;28;20136;-80
2022/10/16 03:14:58;;;;;;;0.30;0.30;;;;;;;14.49;75.53;100580.47;5147730;28;20050;-80
2022/10/16 03:17:31;;;;;;;0.57;0.50;;;;;;;14.49;75.33;100583.09;5142440;28;20030;-80
2022/10/16 03:20:02;;;;;;;;;;;;;;;14.50;75.48;100581.34;5162266;28;20042;-80
2022/10/16 03:22:42;;;;;;;0.20;0.20;;;;;;;14.41;75.52;100588.75;5167731;28;19936;-79
2022/10/16 03:25:17;;;;;;;0.57;0.57;;;;;;;14.32;75.98;100590.00;5168587;28;20038;-80
2022/10/16 03:27:47;;;;;;;0.30;0.30;;;;;;;14.38;75.79;100594.16;5164431;28;20045;-79
2022/10/16 03:30:19;;;;;;;0.50;0.50;;;;;;;14.42;75.64;100589.59;5167345;28;20112;-80
2022/10/16 03:32:53;;;;;;;0.30;0.30;;;;;;;14.47;75.60;100582.31;5151515;28;20093;-81
2022/10/16 03:35:24;;;;;;;0.47;0.47;;;;;;;14.53;75.51;100591.75;5163271;28;20034;-83
2022/10/16 03:37:57;;;;;;;0.20;0.20;;;;;;;14.38;75.63;100588.03;5168279;28;20137;-85
2022/10/16 03:40:28;;;;;;;0.30;0.30;;;;;;;14.38;75.38;100586.25;5167332;28;20038;-83
2022/10/16 03:42:59;;;;;;;0.30;0.30;;;;;;;14.38;75.81;100588.03;5144973;28;20048;-81
2022/10/16 03:45:31;;;;;;;0.50;0.50;;;;;;;14.30;75.27;100585.72;5151812;28;20062;-80
2022/10/16 03:48:06;;;;;;;;;;;;;;;14.38;75.52;100593.31;5199840;28;20022;-80
2022/10/16 03:50:41;;;;;;;0.30;0.30;;;;;;;14.30;75.48;100606.84;5203959;28;19917;-81
2022/10/16 03:53:15;;;;;;;1.25;0.63;;;;;;;14.44;75.05;100608.88;5155427;28;20014;-81
2022/10/16 03:55:48;;;;;;;0.43;0.43;;;;;;;14.32;75.19;100612.91;5186923;28;20042;-81
2022/10/16 03:58:22;;;;;;;0.20;0.20;;;;;;;14.29;75.34;100619.19;5168058;28;20034;-81
2022/10/16 04:00:53;;;;;;;0.20;0.20;;;;;;;14.37;75.02;100612.72;5206617;28;20054;-81
2022/10/16 04:03:27;;;;;;;0.30;0.30;;;;;;;14.32;75.31;100610.28;5167495;28;20028;-81
2022/10/16 04:05:57;;;;;;;0.20;0.20;;;;;;;14.28;75.37;100611.31;5190015;28;20057;-81
2022/10/16 04:08:28;;;;;;;0.50;0.50;;;;;;;14.35;75.15;100619.84;5166952;28;20086;-81
2022/10/16 04:10:58;;;;;;;3.13;1.42;;;;;;;14.23;75.13;100623.88;5182630;28;20050;-81
2022/10/16 04:13:31;;;;;;;0.30;0.30;;;;;;;14.22;75.42;100616.88;5201223;28;20101;-81
2022/10/16 04:16:02;;;;;;;0.38;0.38;;;;;;;14.22;75.55;100620.34;5185284;28;20149;-80
2022/10/16 04:18:32;;;;;;;0.30;0.30;;;;;;;14.20;75.16;100631.91;5197192;28;20030;-81
2022/10/16 04:21:04;;;;;;;0.30;0.30;;;;;;;14.18;75.42;100639.91;5162613;28;20094;-80
2022/10/16 04:23:35;;;;;;;0.20;0.20;;;;;;;14.11;75.74;100644.59;5150189;28;20053;-80
2022/10/16 04:26:10;;;;;;;0.30;0.30;;;;;;;14.18;75.38;100645.19;5148389;28;20038;-80
2022/10/16 04:28:40;;;;;;;0.30;0.30;;;;;;;14.12;75.26;100640.19;5168964;28;20947;-81
2022/10/16 04:31:14;;;;;;;0.25;0.25;;;;;;;14.15;75.47;100643.53;5175070;28;20133;-80
2022/10/16 04:33:47;;;;;;;0.30;0.30;;;;;;;14.11;75.35;100627.91;5198390;28;20088;-80
2022/10/16 04:36:17;;;;;;;0.35;0.35;;;;;;;14.17;75.09;100633.75;5159484;28;20121;-80
2022/10/16 04:38:52;;;;;;;0.30;0.30;;;;;;;14.18;75.51;100634.63;5165697;28;20116;-81
2022/10/16 04:41:23;;;;;;;13.60;1.00;;;;;;;14.13;75.35;100629.56;5186178;28;20049;-80
2022/10/16 04:43:56;;;;;;;2.00;1.05;;;;;;;14.07;75.77;100643.00;5190213;28;20058;-80
2022/10/16 04:46:28;;;;;;;0.40;0.40;;;;;;;14.13;75.49;100647.19;5187037;28;20073;-80
2022/10/16 04:48:59;;;;;;;0.20;0.20;;;;;;;14.13;75.76;100663.84;5175400;28;20034;-80
2022/10/16 04:51:33;;;;;;;0.20;0.20;;;;;;;14.14;75.46;100672.59;5156744;28;20133;-80
2022/10/16 04:54:03;;;;;;;0.68;0.68;;;;;;;14.09;75.71;100671.97;5172478;28;20093;-80
2022/10/16 04:56:43;;;;;;;0.63;0.63;;;;;;;14.09;75.50;100664.88;5172255;28;20770;-80
2022/10/16 04:59:20;;;;;;;0.20;0.20;;;;;;;14.12;75.69;100669.19;5201094;28;20545;-81
2022/10/16 05:01:51;;;;;;;0.30;0.30;;;;;;;14.17;74.98;100665.41;5170258;28;20043;-81
2022/10/16 05:04:21;;;;;;;0.30;0.30;;;;;;;14.03;75.76;100673.06;5138798;28;20181;-81
2022/10/16 05:06:54;;;;;;;0.20;0.20;;;;;;;14.07;75.71;100674.69;5178425;28;20506;-82
2022/10/16 05:09:25;;;;;;;0.40;0.40;;;;;;;14.06;75.71;100669.44;5174512;28;20113;-81
2022/10/16 05:11:58;;;;;;;0.30;0.30;;;;;;;14.07;75.36;100674.69;5181087;28;20125;-82
2022/10/16 05:14:29;;;;;;;;;;;;;;;14.07;75.66;100689.63;5182611;28;20500;-81
2022/10/16 05:17:03;;;;;;;0.30;0.30;;;;;;;14.03;75.75;100694.19;5183482;28;19929;-80
2022/10/16 05:19:35;;;;;;;0.20;0.20;;;;;;;14.02;75.90;100700.38;5182864;28;20034;-81
2022/10/16 05:22:10;;;;;;;0.30;0.30;;;;;;;14.09;75.47;100701.81;5149142;28;20038;-81
2022/10/16 05:24:44;;;;;;;0.32;0.32;;;;;;;14.06;75.15;100687.91;5145592;28;20029;-81
2022/10/16 05:27:18;;;;;;;0.45;0.45;;;;;;;14.01;75.62;100693.38;5168368;28;20045;-80
2022/10/16 05:29:50;;;;;;;0.30;0.30;;;;;;;13.95;75.83;100683.97;5151074;28;20026;-80
2022/10/16 05:32:21;;;;;;;0.40;0.40;;;;;;;13.95;75.74;100688.38;5170895;28;20352;-80
2022/10/16 05:34:51;;;;;;;0.25;0.25;;;;;;;13.94;76.05;100705.97;5170288;28;20054;-81
2022/10/16 05:37:22;;;;;;;0.40;0.40;;;;;;;13.90;76.20;100708.81;5190442;28;20041;-81
2022/10/16 05:39:53;;;;;;;0.32;0.32;;;;;;;13.96;75.55;100716.47;5156994;28;20080;-82
2022/10/16 05:42:24;;;;;;;0.55;0.50;;;;;;;14.00;75.76;100721.53;5186989;28;20042;-81
2022/10/16 05:44:54;;;;;;;0.20;0.20;;;;;;;13.94;76.03;100720.94;5171401;28;20118;-81
2022/10/16 05:47:27;;;;;;;0.50;0.50;;;;;;;13.91;76.07;100727.19;5155038;28;20090;-82
2022/10/16 05:49:58;;;;;;;0.88;0.88;;;;;;;13.88;75.97;100722.06;5170143;28;20064;-82
2022/10/16 05:52:28;;;;;;;0.50;0.50;;;;;;;13.90;75.96;100719.34;5153602;28;20471;-82
2022/10/16 05:55:02;;;;;;;0.30;0.30;;;;;;;13.89;75.99;100728.19;5182324;28;20033;-81
2022/10/16 05:57:36;;;;;;;0.30;0.30;;;;;;;13.93;76.14;100727.13;5154045;28;20030;-82
2022/10/16 06:00:10;;;;;;;0.35;0.35;;;;;;;13.93;76.02;100741.19;5187918;28;20041;-82
2022/10/16 06:02:44;;;;;;;0.30;0.30;;;;;;;13.92;75.95;100752.66;5171323;28;20513;-82
2022/10/16 06:05:14;;;;;;;0.30;0.30;;;;;;;13.89;75.89;100749.28;5185696;28;20081;-82
2022/10/16 06:07:54;;;;;;;0.50;0.50;;;;;;;13.88;75.72;100744.94;5172870;28;20069;-82
2022/10/16 06:10:33;;;;;;;0.38;0.38;;;;;;;13.88;76.05;100743.16;5191303;28;20460;-82
2022/10/16 06:13:09;;;;;;;0.20;0.20;;;;;;;13.93;75.88;100745.59;5171723;28;20030;-81
2022/10/16 06:15:44;;;;;;;0.30;0.30;;;;;;;13.89;75.94;100758.03;5163970;28;20042;-81
2022/10/16 06:18:14;;;;;;;0.25;0.25;;;;;;;13.85;76.48;100762.59;5173427;28;20100;-82
2022/10/16 06:20:45;;;;;;;0.28;0.28;;;;;;;13.91;76.51;100764.13;5162252;28;20030;-82
2022/10/16 06:23:15;;;;;;;0.30;0.30;;;;;;;13.84;76.71;100757.38;5180043;28;20113;-82
2022/10/16 06:25:47;;;;;;;0.30;0.30;;;;;;;13.92;76.23;100763.22;5172870;28;20102;-82
2022/10/16 06:28:18;;;;;;;0.30;0.30;;;;;;;13.89;76.52;100759.84;5177560;28;20034;-82
2022/10/16 06:30:57;;;;;;;0.30;0.30;;;;;;;13.85;76.57;100764.38;5198710;28;20049;-81
2022/10/16 06:33:28;;;;;;;0.30;0.30;;;;;;;13.80;77.27;100775.13;5153219;28;20014;-80
2022/10/16 06:36:15;;;;;;;0.30;0.30;;;;;;;13.96;76.55;100777.13;5195325;28;20501;-81
2022/10/16 06:38:49;;;;;;;0.30;0.30;;;;;;;13.93;76.47;100788.66;5160725;28;20018;-80
2022/10/16 06:41:26;;;;;;;0.20;0.20;;;;;;;14.00;76.57;100794.56;5152642;28;20093;-84
2022/10/16 06:43:56;;;;;;;0.50;0.50;;;;;;;13.95;75.95;100792.13;5142553;28;20037;-83
2022/10/16 06:46:28;;;;;;;0.20;0.20;;;;;;;13.94;76.54;100793.03;5168039;28;20411;-84
2022/10/16 06:48:58;;;;;;;0.55;0.55;;;;;;;13.95;77.05;100796.50;5162719;28;20026;-83
2022/10/16 06:51:41;;;;;;;0.20;0.20;;;;;;;13.86;77.48;100803.03;5136381;28;20168;-81
2022/10/16 06:54:12;;;;;;;0.45;0.45;;;;;;;13.83;77.57;100797.84;5193908;28;20060;-82
2022/10/16 06:56:42;;;;;;;0.30;0.30;;;;;;;13.85;77.32;100804.78;5167879;28;20035;-81
2022/10/16 06:59:13;;;;;;;0.28;0.28;;;;;;;13.85;77.85;100803.94;5159423;28;20040;-79
2022/10/16 07:01:44;;;;;;;0.68;0.68;;;;;;;13.90;77.43;100809.03;5181338;28;20153;-82
2022/10/16 07:04:14;;;;;;;0.30;0.30;;;;;;;13.95;77.41;100809.69;5153217;28;20583;-81
2022/10/16 07:06:45;;;;;;;0.30;0.30;;;;;;;13.90;77.80;100814.31;5147027;28;20052;-80
2022/10/16 07:09:15;;;;;;;0.30;0.30;;;;;;;13.88;77.74;100821.41;5151111;28;20054;-81
2022/10/16 07:11:46;;;;;;;0.40;0.40;;;;;;;13.91;77.34;100832.69;5200675;28;20046;-80
2022/10/16 07:14:21;;;;;;;0.25;0.25;;;;;;;13.98;76.74;100835.97;5143967;28;20026;-80
2022/10/16 07:16:54;;;;;;;0.60;0.57;;;;;;;13.92;77.52;100838.84;5185888;28;20181;-82
2022/10/16 07:19:25;;;;;;;;;;;;;;;13.84;78.01;100842.63;5184806;28;20096;-82
2022/10/16 07:21:59;;;;;;;0.55;0.47;;;;;;;14.02;77.26;100840.19;5181384;28;19921;-82
2022/10/16 07:24:29;;;;;;;0.22;0.22;;;;;;;13.93;77.60;100845.81;5151851;28;20026;-82
2022/10/16 07:27:06;;;;;;;0.30;0.30;;;;;;;13.95;77.49;100851.91;5176042;28;22376;-82
2022/10/16 07:29:37;;;;;;;0.20;0.20;;;;;;;14.00;77.41;100858.72;5145354;28;20037;-82
2022/10/16 07:32:09;;;;;;;0.30;0.30;;;;;;;14.02;77.81;100856.00;5162710;28;20398;-83
2022/10/16 07:34:39;;;;;;;0.40;0.40;;;;;;;13.95;78.09;100854.53;5172142;28;20030;-82
2022/10/16 07:37:10;;;;;;;0.40;0.40;;;;;;;13.94;78.02;100858.97;5173770;28;20592;-83
2022/10/16 07:39:41;;;;;;;0.40;0.40;;;;;;;13.87;78.41;100873.31;5148257;28;20062;-81
2022/10/16 07:42:12;;;;;;;0.85;0.85;;;;;;;13.82;79.01;100875.25;5176296;28;20626;-81
2022/10/16 07:44:42;;;;;;;0.75;0.75;;;;;;;13.87;79.21;100877.72;5164377;28;20109;-82
2022/10/16 07:47:22;;;;;;;0.43;0.43;;;;;;;13.94;78.02;100882.72;5146199;28;20117;-81
2022/10/16 07:49:53;;;;;;;0.20;0.20;;;;;;;13.98;78.78;100886.09;5137292;28;20038;-84
2022/10/16 07:52:36;;;;;;;0.30;0.30;;;;;;;13.93;79.06;100896.81;5149929;28;20494;-83
2022/10/16 07:55:08;;;;;;;0.63;0.55;;;;;;;13.90;80.14;100894.28;5168565;28;20037;-83
2022/10/16 07:57:39;;;;;;;0.55;0.55;;;;;;;14.01;80.09;100896.50;5158127;28;20078;-83
2022/10/16 08:00:13;;;;;;;0.57;0.57;;;;;;;14.00;80.39;100900.09;5176304;28;20124;-83
2022/10/16 08:02:43;;;;;;;0.40;0.40;;;;;;;14.07;80.29;100903.31;5165931;28;20036;-82
2022/10/16 08:05:17;;;;;;;0.47;0.47;;;;;;;14.05;80.51;100908.66;5138168;28;20048;-82
2022/10/16 08:07:50;;;;;;;0.30;0.30;;;;;;;14.05;80.94;100905.19;5173869;28;20047;-82
2022/10/16 08:10:24;;;;;;;0.50;0.50;;;;;;;14.09;80.87;100915.53;5149231;28;20054;-81
2022/10/16 08:13:01;;;;;;;0.40;0.40;;;;;;;14.11;80.94;100923.41;5186525;28;20032;-82
2022/10/16 08:15:31;;;;;;;0.50;0.50;;;;;;;14.15;80.39;100914.44;5150165;28;20038;-82
2022/10/16 08:18:17;;;;;;;0.50;0.50;;;;;;;14.19;80.15;100920.47;5136137;28;20037;-81
2022/10/16 08:20:57;;;;;;;0.30;0.30;;;;;;;14.27;79.81;100918.38;5183584;28;20111;-81
2022/10/16 08:23:28;;;;;;;0.47;0.47;;;;;;;14.29;79.88;100919.19;5204071;28;20030;-82
2022/10/16 08:26:04;;;;;;;0.30;0.30;;;;;;;14.35;79.45;100924.22;5182717;28;20541;-83
2022/10/16 08:28:39;;;;;;;0.30;0.30;;;;;;;14.43;78.73;100923.91;5147317;28;20080;-83
2022/10/16 08:31:15;;;;;;;0.80;0.80;;;;;;;14.35;79.51;100932.13;5134988;28;20042;-82
2022/10/16 08:33:47;;;;;;;0.30;0.30;;;;;;;14.41;79.26;100937.19;5129067;28;20046;-81
2022/10/16 08:36:19;;;;;;;0.47;0.47;;;;;;;14.40;79.50;100945.16;5205299;28;20526;-82
2022/10/16 08:38:50;;;;;;;0.25;0.25;;;;;;;14.43;78.95;100945.03;5151131;28;20035;-81
2022/10/16 08:41:30;;;;;;;0.47;0.47;;;;;;;14.52;79.00;100957.88;5146101;28;20069;-81
2022/10/16 08:44:36;;;;;;;0.20;0.20;;;;;;;14.62;77.78;100958.34;5149905;28;20043;-81
2022/10/16 08:47:09;;;;;;;0.38;0.38;;;;;;;14.57;78.83;100958.53;5179263;28;20056;-81
2022/10/16 08:49:50;;;;;;;0.55;0.55;;;;;;;14.65;77.59;100963.53;5164979;28;20033;-80
2022/10/16 08:52:22;;;;;;;0.47;0.47;;;;;;;14.64;77.87;100965.28;5150454;28;20038;-80
2022/10/16 08:54:55;;;;;;;2.28;1.38;;;;;;;14.68;78.30;100962.56;5153324;28;20412;-82
2022/10/16 08:57:28;;;;;;;0.40;0.40;;;;;;;14.73;77.95;100969.41;5164685;28;20257;-82
2022/10/16 09:00:05;;;;;;;0.40;0.40;;;;;;;14.77;77.85;100970.97;5195641;28;20030;-80
2022/10/16 09:02:59;;;;;;;0.50;0.50;;;;;;;14.81;76.88;100981.44;5165744;28;20062;-80
2022/10/16 09:06:02;;;;;;;0.30;0.30;;;;;;;14.84;76.44;100982.16;5161240;28;20626;-80
2022/10/16 09:08:51;;;;;;;0.20;0.20;;;;;;;14.91;76.05;100985.41;5162141;28;20038;-81
2022/10/16 09:11:59;;;;;;;0.20;0.20;;;;;;;14.93;75.60;100987.06;5136118;28;20070;-81
2022/10/16 09:14:46;;;;;;;0.20;0.20;;;;;;;14.98;75.20;100984.25;5165357;28;20034;-81
2022/10/16 09:17:29;;;;;;;0.20;0.20;;;;;;;14.96;75.74;100978.16;5172633;28;20409;-80
2022/10/16 09:20:37;;;;;;;0.30;0.30;;;;;;;15.05;75.90;100988.34;5146579;28;20095;-81
2022/10/16 09:23:14;;;;;;;0.40;0.40;;;;;;;15.04;76.01;100991.91;5148164;28;20439;-81
2022/10/16 09:25:49;;;;;;;0.30;0.30;;;;;;;15.09;76.03;100997.84;5168786;28;20042;-81
2022/10/16 09:28:19;;;;;;;0.32;0.32;;;;;;;15.18;74.24;101003.66;5183947;28;20038;-80
2022/10/16 09:30:50;;;;;;;0.30;0.30;;;;;;;15.23;74.12;101002.56;5185397;28;20049;-80
2022/10/16 09:33:25;;;;;;;0.30;0.30;;;;;;;15.28;73.34;100999.72;5200986;28;20037;-80
2022/10/16 09:35:58;;;;;;;0.40;0.40;;;;;;;15.30;73.26;101000.53;5186792;28;20704;-81
2022/10/16 09:38:35;;;;;;;0.30;0.30;;;;;;;15.33;73.75;101008.31;5158993;28;20070;-81
2022/10/16 09:41:22;;;;;;;0.40;0.40;;;;;;;15.38;73.97;101013.41;5188775;28;20772;-79
2022/10/16 09:44:05;;;;;;;0.50;0.50;;;;;;;15.39;74.38;101010.72;5194475;28;20097;-77
2022/10/16 09:46:40;;;;;;;0.20;0.20;;;;;;;15.43;73.34;101004.34;5161415;28;20049;-80
2022/10/16 09:49:27;;;;;;;0.20;0.20;;;;;;;15.41;73.52;101008.00;5131493;28;20178;-82
2022/10/16 09:52:24;;;;;;;0.20;0.20;;;;;;;15.49;73.08;101012.97;5164193;28;20099;-80
2022/10/16 09:54:57;;;;;;;3.95;0.50;;;;;;;15.52;72.23;101012.81;5144357;28;20053;-82
2022/10/16 09:57:31;;;;;;;0.30;0.30;;;;;;;15.55;71.00;101007.41;5151281;28;20120;-82
2022/10/16 10:00:08;;;;;;;0.30;0.30;;;;;;;15.50;71.12;101009.38;5167085;28;20044;-81
2022/10/16 10:02:39;;;;;;;0.20;0.20;;;;;;;15.53;70.76;101012.78;5172751;28;20030;-82
2022/10/16 10:05:19;;;;;;;0.45;0.45;;;;;;;15.62;70.09;101011.50;5139212;28;20030;-84
2022/10/16 10:07:59;;;;;;;0.30;0.30;;;;;;;15.64;70.21;101020.22;5151841;28;20134;-80
2022/10/16 10:10:38;;;;;;;0.30;0.30;;;;;;;15.64;71.49;101008.78;5152979;28;20117;-81
2022/10/16 10:13:24;;;;;;;0.57;0.57;;;;;;;15.69;70.80;101012.94;5175102;28;20022;-83
2022/10/16 10:15:57;;;;;;;0.30;0.30;;;;;;;15.79;70.19;101010.75;5164340;28;20038;-83
2022/10/16 10:18:34;;;;;;;0.20;0.20;;;;;;;15.74;69.49;101004.81;5167462;28;20042;-83
2022/10/16 10:21:05;;;;;;;0.20;0.20;;;;;;;15.67;69.49;100998.91;5177516;28;20030;-83
2022/10/16 10:23:58;;;;;;;0.20;0.20;;;;;;;15.66;70.91;101015.72;5179560;28;20038;-83
2022/10/16 10:26:38;;;;;;;0.50;0.50;;;;;;;15.66;71.73;101021.00;5134503;28;20053;-82
2022/10/16 10:29:14;;;;;;;0.30;0.30;;;;;;;15.69;71.59;101015.59;5182714;28;20033;-82
2022/10/16 10:32:04;;;;;;;0.20;0.20;;;;;;;15.83;70.70;101015.00;5196585;28;20042;-83
2022/10/16 10:34:51;;;;;;;0.20;0.20;;;;;;;15.85;70.33;101017.59;5183432;28;20030;-83
2022/10/16 10:37:43;;;;;;;0.75;0.73;;;;;;;15.91;69.75;101021.75;5133730;28;20542;-82
2022/10/16 10:40:43;;;;;;;0.20;0.20;;;;;;;15.92;70.46;101024.31;5184829;28;20050;-81
2022/10/16 10:43:43;;;;;;;0.30;0.30;;;;;;;16.01;69.10;101021.25;5168645;28;20032;-81
2022/10/16 10:46:37;;;;;;;0.20;0.20;;;;;;;16.05;69.65;101020.22;5188876;28;20070;-81
2022/10/16 10:49:39;;;;;;;0.20;0.20;;;;;;;16.12;69.70;101019.91;5200159;28;20103;-81
2022/10/16 10:52:47;;;;;;;0.20;0.20;;;;;;;16.07;69.51;101016.63;5168339;28;20035;-82
2022/10/16 10:55:48;;;;;;;0.20;0.20;;;;;;;16.15;69.75;101019.78;5167873;28;20039;-83
2022/10/16 10:58:25;;;;;;;0.25;0.25;;;;;;;16.18;70.17;101025.81;5133954;28;20035;-84
2022/10/16 11:01:19;;;;;;;0.20;0.20;;;;;;;16.19;69.76;101024.88;5148243;28;20034;-80
2022/10/16 11:03:59;;;;;;;0.20;0.20;;;;;;;16.21;70.68;101032.75;5174692;28;20642;-84
2022/10/16 11:06:34;;;;;;;0.40;0.40;;;;;;;16.41;68.81;101033.59;5127628;28;20056;-81
2022/10/16 11:09:36;;;;;;;0.28;0.28;;;;;;;16.44;69.19;101030.81;5165021;28;20108;-82
2022/10/16 11:12:18;;;;;;;1.27;0.82;;;;;;;16.54;68.68;101029.47;5135904;28;20114;-83
2022/10/16 11:15:04;;;;;;;0.30;0.30;;;;;;;16.55;68.63;101039.13;5148676;28;20102;-82
2022/10/16 11:17:41;;;;;;;0.20;0.20;;;;;;;16.58;69.07;101038.97;5131394;28;20124;-80
2022/10/16 11:20:11;;;;;;;0.32;0.32;;;;;;;16.83;67.36;101037.78;5146821;28;20117;-80
2022/10/16 11:22:51;;;;;;;0.75;0.75;;;;;;;16.81;68.37;101039.69;5154241;28;20035;-82
2022/10/16 11:25:34;;;;;;;0.65;0.65;;;;;;;16.95;67.67;101039.00;5164418;28;20097;-82
2022/10/16 11:28:20;;;;;;;1.30;0.93;;;;;;;17.08;67.81;101036.63;5166827;28;20542;-82
2022/10/16 11:31:11;;;;;;;0.30;0.30;;;;;;;17.17;66.34;101033.50;5160815;28;20290;-85
2022/10/16 11:34:19;;;;;;;2.38;0.85;;;;;;;17.29;66.55;101043.53;5148596;28;20438;-83
2022/10/16 11:37:25;;;;;;;0.20;0.20;;;;;;;17.48;64.94;101045.22;5173872;28;20030;-81
2022/10/16 11:40:06;;;;;;;0.20;0.20;;;;;;;17.87;63.63;101033.50;5132606;28;20353;-81
2022/10/16 11:42:48;;;;;;;0.20;0.20;;;;;;;17.69;65.93;101045.06;5180508;28;20026;-82
2022/10/16 11:45:21;;;;;;;0.57;0.57;;;;;;;17.82;64.24;101038.16;5160370;28;20049;-82
2022/10/16 11:48:02;;;;;;;0.20;0.20;;;;;;;18.07;62.18;101042.22;5160711;28;20046;-83
2022/10/16 11:50:56;;;;;;;0.40;0.40;;;;;;;18.14;62.79;101043.59;5166184;28;20157;-84
2022/10/16 11:53:45;;;;;;;0.20;0.20;;;;;;;18.06;63.39;101043.16;5164190;28;20060;-84
2022/10/16 11:56:21;;;;;;;0.20;0.20;;;;;;;18.12;62.34;101044.63;5153517;28;20410;-82
2022/10/16 11:59:36;;;;;;;0.25;0.25;;;;;;;18.39;60.49;101044.91;5131778;28;20038;-85
2022/10/16 12:02:28;;;;;;;0.20;0.20;;;;;;;18.21;62.85;101045.00;5115598;28;20038;-83
2022/10/16 12:05:20;;;;;;;0.38;0.38;;;;;;;18.51;60.80;101040.75;5152668;28;20026;-84
2022/10/16 12:08:09;;;;;;;0.20;0.20;;;;;;;18.72;59.93;101059.94;5162797;28;20027;-83
2022/10/16 12:10:42;;;;;;;14.80;1.20;;;;;;;18.86;57.88;101045.84;5111524;28;20087;-84
2022/10/16 12:13:39;;;;;;;0.20;0.20;;;;;;;18.83;58.15;101046.91;5146442;28;20600;-83
2022/10/16 12:16:11;;;;;;;2.67;0.88;;;;;;;18.87;58.92;101037.81;5113611;28;20085;-82